Bewolking Meer informatie Parkstad Weather Satellite


Neerslagradar Meer informatie Parkstad Rain Snow Radar


Onweersbuien Meer informatie Parkstad Lighntning


24/7 Weercamera Meer informatie Parkstad Weathercam


Natuurbrandrisico
CBI






Het weer levert geen direct gevaar op in Parkstad.    Er zijn geen waarschuwingen afgegeven voor Parkstad (045)

METAR rapporten vliegvelden

   
EHBK - Beek Nederland
Gewijzigd: 12-11-2019 12:25
Bewolking  
Bewolking  
   Wind: ZW 22.2 km/h
Wind: ZW 22.2 km/h
Temperatuur: 6°C
Voelt als: 2°C
Dauwpunt: 3°C
Vochtigheid: 81%
Barometer: 1001 hPa
Satelliet beelden: Bewolking
Zicht: meer dan 10 km
Bewolking: Grotendeels bewolkt 396 m,
Grotendeels bewolkt 457 m,
Bewolking 579 m
EHBK 121125Z AUTO 23012KT 210V270 9999 BKN013 BKN015 OVC019 06/03 Q1001 TEMPO 7000 BKN015
EHBK - Maastricht Nederland
Gewijzigd: 12-11-2019 12:25
Bewolking  
Bewolking  
   Wind: ZW 22.2 km/h
Wind: ZW 22.2 km/h
Temperatuur: 6°C
Voelt als: 2°C
Dauwpunt: 3°C
Vochtigheid: 81%
Barometer: 1001 hPa
Satelliet beelden: Bewolking
Zicht: meer dan 10 km
Bewolking: Grotendeels bewolkt 396 m,
Grotendeels bewolkt 457 m,
Bewolking 579 m
EHBK 121125Z AUTO 23012KT 210V270 9999 BKN013 BKN015 OVC019 06/03 Q1001 TEMPO 7000 BKN015
EBLG - Liège België
Gewijzigd: 12-11-2019 12:20
Grotendeels bewolkt  
Grotendeels bewolkt  
   Wind: ZW 22.2 km/h
Wind: ZW 22.2 km/h
Temperatuur: 5°C
Voelt als: 1°C
Dauwpunt: 3°C
Vochtigheid: 87%
Barometer: 1001 hPa
Satelliet beelden: Grotendeels bewolkt
Zicht: meer dan 10 km
Bewolking: Licht bewolkt 305 m,
Grotendeels bewolkt 396 m
EBLG 121120Z 23012KT 9999 FEW010 BKN013 05/03 Q1001 NOSIG
EDDK - Köln/Bonn Duitsland
Gewijzigd: 12-11-2019 12:20
Wat regen mogelijk, Grotendeels bewolkt  
Wat regen mogelijk, Grotendeels bewolkt  
   Wind: ZZW 24.1 km/h
Wind: ZZW 24.1 km/h
Temperatuur: 7°C
Voelt als: 3°C
Dauwpunt: 3°C
Vochtigheid: 76%
Barometer: 1001 hPa
Satelliet beelden: Grotendeels bewolkt
Zicht: meer dan 10 km
Bewolking: Gedeeltelijk bewolkt 427 m,
Grotendeels bewolkt 853 m
EDDK 121120Z 20013KT 9999 -RA SCT014 BKN028 07/03 Q1001 NOSIG
EDDL - Düsseldorf Duitsland
Gewijzigd: 12-11-2019 12:20
Grotendeels bewolkt  
Grotendeels bewolkt  
   Wind: Zuiden 18.5 km/h
Wind: Zuiden 18.5 km/h
Temperatuur: 6°C
Voelt als: 3°C
Dauwpunt: 4°C
Vochtigheid: 87%
Barometer: 1001 hPa
Satelliet beelden: Grotendeels bewolkt
Zicht: meer dan 10 km
Bewolking: Licht bewolkt 457 m,
Gedeeltelijk bewolkt 610 m,
Grotendeels bewolkt 914 m
EDDL 121120Z 19010KT 9999 FEW015 SCT020 BKN030 06/04 Q1001 NOSIG
EHEH - Eindhoven Nederland
Gewijzigd: 12-11-2019 12:35
Bewolking  
Bewolking  
   Wind: ZZW 24.1 km/h
Wind: ZZW 24.1 km/h
Temperatuur: 6°C
Voelt als: 2°C
Dauwpunt: 3°C
Vochtigheid: 81%
Barometer: 1000 hPa
Satelliet beelden: Bewolking
Zicht: meer dan 10 km
Bewolking: Grotendeels bewolkt 488 m,
Bewolking 4572 m
EHEH 121135Z AUTO 21013KT 9999 BKN016 OVC150 06/03 Q1000 WHT 21010KT 9999 SCT015 SCT045
ELLX - Luxemburg Luxemburg
Gewijzigd: 12-11-2019 12:20
Wat regen mogelijk, Motregen, Grotendeels bewolkt  
Wat regen mogelijk, Motregen, Grotendeels bewolkt  
   Wind: ZZW 24.1 km/h
Wind: ZZW 24.1 km/h
Temperatuur: 3°C
Voelt als: -2°C
Dauwpunt: 3°C
Vochtigheid: 100%
Barometer: 1003 hPa
Satelliet beelden: Grotendeels bewolkt
Zicht: 6 km
Bewolking: Gedeeltelijk bewolkt 122 m,
Grotendeels bewolkt 183 m
ELLX 121120Z 21013KT 170V240 6000 -RADZ SCT004 BKN006 03/03 Q1003 TEMPO BKN012
EGLL - London England
Gewijzigd: 12-11-2019 12:20
Helder  
Helder  
   Wind: WZW 35.2 km/h
Wind: WZW 35.2 km/h
Temperatuur: 9°C
Voelt als: 5°C
Dauwpunt: 2°C
Vochtigheid: 62%
Barometer: 998 hPa
Satelliet beelden: Helder
Zicht: meer dan 10 km
Bewolking: Helder
EGLL 121120Z AUTO 25019KT 9999 NCD 09/02 Q0998 NOSIG
EBAW - Antwerpen België
Gewijzigd: 12-11-2019 12:20
Gedeeltelijk bewolkt  
Gedeeltelijk bewolkt  
   Wind: ZW 16.7 km/h
Wind: ZW 16.7 km/h
Temperatuur: 7°C
Voelt als: 4°C
Dauwpunt: 3°C
Vochtigheid: 76%
Barometer: 1000 hPa
Satelliet beelden: Gedeeltelijk bewolkt
Zicht: meer dan 10 km
Bewolking: Gedeeltelijk bewolkt 366 m
EBAW 121120Z 22009KT 190V250 9999 SCT012 07/03 Q1000 NOSIG
EBOS - Oostende België
Gewijzigd: 12-11-2019 12:20
Grotendeels bewolkt  
Grotendeels bewolkt  
   Wind: ZW 27.8 km/h
Wind: ZW 27.8 km/h
Temperatuur: 7°C
Voelt als: 3°C
Dauwpunt: 4°C
Vochtigheid: 81%
Barometer: 999 hPa
Satelliet beelden: Grotendeels bewolkt
Zicht: meer dan 10 km
Bewolking: Licht bewolkt 549 m,
Gedeeltelijk bewolkt 762 m,
Grotendeels bewolkt 1219 m
EBOS 121120Z 22015KT 9999 FEW018TCU SCT025 BKN040 07/04 Q0999 NOSIG
LEAL - La Nucia Spanje
Gewijzigd: 12-11-2019 12:30
Helder  
Helder  
   Wind: Westen 20.4 km/h
Wind: Westen 20.4 km/h
Temperatuur: 18°C
Dauwpunt: 1°C
Vochtigheid: 32%
Barometer: 1012 hPa
Zicht: meer dan 10 km
Bewolking: Helder
LEAL 121130Z 28011KT 240V320 CAVOK 18/01 Q1012 NOSIG
TNCA - Oranjestad Aruba
Gewijzigd: 12-11-2019 12:00
Licht bewolkt  
Licht bewolkt  
   Wind: Oosten 16.7 km/h
Wind: Oosten 16.7 km/h
Temperatuur: 27°C
Gevoelstemperatuur: 30°C
Dauwpunt: 24°C
Vochtigheid: 84%
Barometer: 1009 hPa
Satelliet beelden: Licht bewolkt
Zicht: meer dan 10 km
Bewolking: Licht bewolkt 549 m
TNCA 121100Z 10009KT 9999 FEW018 27/24 Q1009 NOSIG
TNCC - Willemstad Curacao
Gewijzigd: 12-11-2019 12:00
Gedeeltelijk bewolkt  
Gedeeltelijk bewolkt  
   Wind: ZO 14.8 km/h
Wind: ZO 14.8 km/h
Temperatuur: 28°C
Gevoelstemperatuur: 31°C
Dauwpunt: 23°C
Vochtigheid: 74%
Barometer: 1010 hPa
Satelliet beelden: Gedeeltelijk bewolkt
Zicht: meer dan 10 km
Bewolking: Gedeeltelijk bewolkt 549 m
TNCC 121100Z AUTO 13008KT 9999 SCT018 28/23 Q1010 NOSIG=
MTPP - Port au Prince Haitië
Gewijzigd: 12-11-2019 11:59
  
  
   Wind: Oosten 11.1 km/h
Wind: Oosten 11.1 km/h
Temperatuur: 23°C
Dauwpunt: 22°C
Vochtigheid: 94%
Barometer: 1012 hPa
Zicht: 8 km
MTPP 121059Z AUTO 10006KT 8000 ////// 23/22 Q1012 A2988 NOSIG
ENVA - Trondheim Noorwegen
Gewijzigd: 12-11-2019 12:20
Grotendeels bewolkt  
Grotendeels bewolkt  
   Wind: Oosten 9.3 km/h
Wind: Oosten 9.3 km/h
Temperatuur: 5°C
Voelt als: 3°C
Dauwpunt: -2°C
Vochtigheid: 61%
Barometer: 1000 hPa
Satelliet beelden: Grotendeels bewolkt
Zicht: meer dan 10 km
Bewolking: Licht bewolkt 1219 m,
Grotendeels bewolkt 2499 m
ENVA 121120Z 10005KT 010V150 9999 FEW040 BKN082 05/M02 Q1000 NOSIG NOSIG RMK WIND 670FT VRB15G28KT
ENBO - Bodø Noorwegen
Gewijzigd: 12-11-2019 12:20
Licht bewolkt  
Licht bewolkt  
   Wind: Oosten 35.2 km/h
Wind: Oosten 35.2 km/h
Temperatuur: -1°C
Voelt als: -8°C
Dauwpunt: -8°C
Vochtigheid: 59%
Barometer: 1007 hPa
Satelliet beelden: Licht bewolkt
Zicht: meer dan 10 km
Bewolking: Licht bewolkt 1219 m
ENBO 121120Z 10019KT 9999 FEW040 M01/M08 Q1007 TEMPO 12025G35KT
ETNG - Geilenkirchen Duitsland
Gewijzigd: 12-11-2019 11:50
Grotendeels bewolkt  
Grotendeels bewolkt  
   Wind: ZW 20.4 km/h<br />Gust to 20.4 km/h
Wind: ZW 20.4 km/h
Gust to 20.4 km/h
Temperatuur: 6°C
Voelt als: 2°C
Dauwpunt: 3°C
Vochtigheid: 81%
Barometer: 1000 hPa
Satelliet beelden: Grotendeels bewolkt
Zicht: meer dan 10 km
Bewolking: Licht bewolkt 305 m,
Grotendeels bewolkt 518 m
ETNG 121050Z 22011G25KT 9999 FEW010 BKN017 06/03 Q1000 TEMPO -SHRA
 

Script ontwikkeld door  Saratoga-weather.org Aangepast voor de template door  Weerstation Leuven

U vindt ons ook hier:

Het Weer Aktueel

WOW Nederland KNMI

Vereniging voor Weerkunde en Klimatologie

UK Met Office Weather Observation Website (WOW)

WeatherCloud

Weather Underground

Awekas

Weatherlink IP

HAMweather, WeatherForYou, PWS Weather

Citizen Weather Observer Program (CWOP)

Apparatuur in gebruik:

Hardwareleverancier
Weerhuisje

Weerstation
Vantage Pro2+ UV

Weercomputer's
alix3d2 & wl330n

Weerprogramma's
Smartbedded

Satelliet NOAA's
WRX137 & KX137

Satelliet Eumetsat
Ayecka SR1 & Triax

Bliksemdetectie
Boltek StormTracker

Webleverancier
F-Service

Weerhuisje

Vantage Pro2+ UV

alix3d2 & wl330n

Smartbedded

WRX137 & KX137

Ayecka SR1 & Triax

Boltek StormTracker

F-Service